Time;durP1;ratioP1;P1;durP2;ratioP2;P2;SDS_P1;SDS_P2;PMS_P1;PMS_P2;Temp;Humidity;BMP_temperature;BMP_pressure;BME280_temperature;BME280_humidity;BME280_pressure;Samples;Min_cycle;Max_cycle;Signal;HPM_P1;HPM_P2
2022/04/13 00:00:41;;;;;;;21.10;6.37;;;;;;;-145.18;100.00;46586.16;5012149;28;20117;-75
2022/04/13 00:03:07;;;;;;;22.37;7.43;;;;;;;-145.18;100.00;46582.25;5011376;28;20069;-75
2022/04/13 00:05:32;;;;;;;20.37;7.53;;;;;;;-145.18;100.00;46586.16;5011802;28;20490;-75
2022/04/13 00:07:58;;;;;;;18.13;8.23;;;;;;;-145.18;100.00;46580.31;5011396;28;20060;-76
2022/04/13 00:10:23;;;;;;;16.53;8.03;;;;;;;-145.18;100.00;46627.19;5011501;28;20034;-75
2022/04/13 00:12:49;;;;;;;24.07;8.27;;;;;;;-145.18;100.00;46580.31;5011544;28;20221;-76
2022/04/13 00:15:14;;;;;;;22.70;8.33;;;;;;;-145.18;100.00;46619.38;5011787;28;20038;-75
2022/04/13 00:17:39;;;;;;;15.90;8.60;;;;;;;-145.18;100.00;46570.53;5010986;28;20113;-75
2022/04/13 00:20:06;;;;;;;15.60;9.43;;;;;;;-145.18;100.00;46572.50;4994093;28;20038;-75
2022/04/13 00:22:32;;;;;;;20.60;8.43;;;;;;;-145.18;100.00;46619.38;5011051;28;20134;-75
2022/04/13 00:24:57;;;;;;;18.27;9.10;;;;;;;-145.18;100.00;46613.50;5011135;28;20267;-75
2022/04/13 00:27:22;;;;;;;19.50;8.93;;;;;;;-145.18;100.00;46619.38;5011350;28;20169;-75
2022/04/13 00:29:48;;;;;;;17.53;8.23;;;;;;;-145.18;100.00;46617.41;5010224;28;20041;-75
2022/04/13 00:32:13;;;;;;;13.33;8.53;;;;;;;-145.18;100.00;46613.50;5011378;28;20037;-75
2022/04/13 00:34:39;;;;;;;20.40;8.20;;;;;;;-145.18;100.00;46568.59;5010888;28;20041;-75
2022/04/13 00:37:05;;;;;;;18.50;7.53;;;;;;;-145.18;100.00;46621.31;5011373;28;20034;-75
2022/04/13 00:39:30;;;;;;;17.90;8.27;;;;;;;-145.18;100.00;46619.38;5010693;28;20040;-75
2022/04/13 00:41:57;;;;;;;22.13;8.43;;;;;;;-145.18;100.00;46617.41;4998292;28;20042;-75
2022/04/13 00:44:22;;;;;;;14.83;7.77;;;;;;;-145.18;100.00;46619.38;4991039;28;20042;-75
2022/04/13 00:46:48;;;;;;;19.67;9.10;;;;;;;-145.18;100.00;46570.53;4991540;28;20327;-75
2022/04/13 00:49:14;;;;;;;17.10;8.80;;;;;;;-145.18;100.00;46568.59;4991177;28;20117;-75
2022/04/13 00:51:39;;;;;;;19.97;8.60;;;;;;;-145.18;100.00;46572.50;4991376;28;20027;-75
2022/04/13 00:54:06;;;;;;;18.93;8.27;;;;;;;-145.18;100.00;46619.38;4991072;28;20327;-75
2022/04/13 00:56:35;;;;;;;14.30;7.97;;;;;;;-145.18;100.00;46613.50;4991107;28;20035;-75
2022/04/13 00:59:13;;;;;;;18.33;7.77;;;;;;;-145.18;100.00;46568.59;4991017;28;20359;-75
2022/04/13 01:01:41;;;;;;;20.67;8.10;;;;;;;-145.18;100.00;46613.50;4991147;28;20295;-75
2022/04/13 01:04:09;;;;;;;15.10;7.67;;;;;;;-145.18;100.00;46564.69;4991060;28;20267;-75
2022/04/13 01:06:34;;;;;;;16.67;8.33;;;;;;;-145.18;100.00;46564.69;4990707;28;20356;-75
2022/04/13 01:09:01;;;;;;;14.97;8.73;;;;;;;-145.18;100.00;46611.56;4991280;28;20363;-75
2022/04/13 01:11:27;;;;;;;21.03;9.10;;;;;;;-145.18;100.00;46562.72;4991061;28;20034;-75
2022/04/13 01:13:55;;;;;;;16.93;8.67;;;;;;;-145.18;100.00;46566.63;4991019;28;20292;-75
2022/04/13 01:16:23;;;;;;;18.37;7.97;;;;;;;-145.18;100.00;46609.59;4990779;28;20729;-75
2022/04/13 01:18:49;;;;;;;16.27;9.73;;;;;;;-145.18;100.00;46609.59;4990846;28;20307;-75
2022/04/13 01:21:17;;;;;;;22.90;9.53;;;;;;;-145.18;100.00;46613.50;4990952;28;20370;-75
2022/04/13 01:23:42;;;;;;;18.37;8.90;;;;;;;-145.18;100.00;46621.31;4990399;28;20334;-75
2022/04/13 01:26:10;;;;;;;19.53;8.77;;;;;;;-145.18;100.00;46623.28;4991148;28;20367;-75
2022/04/13 01:28:36;;;;;;;18.03;8.77;;;;;;;-145.18;100.00;46625.22;4990527;28;20105;-75
2022/04/13 01:31:01;;;;;;;15.40;8.50;;;;;;;-145.18;100.00;46629.13;4991320;28;20787;-75
2022/04/13 01:33:28;;;;;;;16.73;8.90;;;;;;;-145.18;100.00;46625.22;4990470;28;20272;-75
2022/04/13 01:35:56;;;;;;;20.93;9.73;;;;;;;-145.18;100.00;46623.28;4991128;28;20031;-75
2022/04/13 01:38:21;;;;;;;16.93;8.60;;;;;;;-145.18;100.00;46615.47;4988760;28;20312;-75
2022/04/13 01:40:48;;;;;;;23.07;9.17;;;;;;;-145.18;100.00;46617.41;4993939;28;20366;-75
2022/04/13 01:43:14;;;;;;;23.60;9.93;;;;;;;-145.18;100.00;46617.41;4994591;28;20125;-75
2022/04/13 01:45:39;;;;;;;13.47;8.67;;;;;;;-145.18;100.00;46611.56;4994848;28;20637;-75
2022/04/13 01:48:05;;;;;;;15.07;8.40;;;;;;;-145.18;100.00;46609.59;4994499;28;20045;-75
2022/04/13 01:50:30;;;;;;;19.37;9.93;;;;;;;-145.18;100.00;46609.59;4994697;28;20049;-75
2022/04/13 01:52:56;;;;;;;18.87;10.33;;;;;;;-145.18;100.00;46611.56;4994536;28;20121;-75
2022/04/13 01:55:21;;;;;;;21.17;9.50;;;;;;;-145.18;100.00;46627.19;4993348;28;20085;-75
2022/04/13 01:57:46;;;;;;;17.33;8.63;;;;;;;-145.18;100.00;46658.44;4994807;28;20042;-75
2022/04/13 02:02:53;;;;;;;20.93;9.87;;;;;;;-145.18;100.00;46631.09;5270067;23;20477;-76
2022/04/13 02:05:18;;;;;;;20.80;9.43;;;;;;;-145.18;100.00;46621.31;4992711;28;20755;-75
2022/04/13 02:07:44;;;;;;;17.97;8.93;;;;;;;-145.18;100.00;46627.19;4994380;28;20306;-75
2022/04/13 02:10:09;;;;;;;16.13;9.73;;;;;;;-145.18;100.00;46627.19;4993749;28;20072;-75
2022/04/13 02:12:36;;;;;;;23.83;11.10;;;;;;;-145.18;100.00;46629.13;4993865;28;20118;-76
2022/04/13 02:15:02;;;;;;;21.17;9.90;;;;;;;-145.18;100.00;46640.88;4976767;28;20034;-76
2022/04/13 02:17:27;;;;;;;23.97;10.80;;;;;;;-145.18;100.00;46660.41;4993900;28;20292;-76
2022/04/13 02:19:53;;;;;;;19.40;10.67;;;;;;;-145.18;100.00;46664.31;4994367;28;20085;-76
2022/04/13 02:22:18;;;;;;;19.53;11.03;;;;;;;-145.18;100.00;46672.13;4976154;28;20042;-76
2022/04/13 02:24:43;;;;;;;22.27;11.70;;;;;;;-145.18;100.00;46674.06;4994320;28;20547;-76
2022/04/13 02:27:09;;;;;;;23.50;11.80;;;;;;;-145.18;100.00;46676.03;4993789;28;20041;-76
2022/04/13 02:29:36;;;;;;;19.87;10.90;;;;;;;-145.18;100.00;46689.69;4994123;28;20398;-76
2022/04/13 02:32:03;;;;;;;20.30;11.00;;;;;;;-145.18;100.00;46687.75;4993564;28;20288;-76
2022/04/13 02:34:28;;;;;;;22.37;11.77;;;;;;;-145.18;100.00;46672.13;4994119;28;20276;-76
2022/04/13 02:36:54;;;;;;;18.63;10.40;;;;;;;-145.18;100.00;46672.13;4993952;28;20323;-76
2022/04/13 02:39:19;;;;;;;21.30;12.93;;;;;;;-145.18;100.00;46691.66;4993247;28;20066;-76
2022/04/13 02:41:45;;;;;;;20.10;13.27;;;;;;;-145.18;100.00;46685.78;4994011;28;20050;-76
2022/04/13 02:44:10;;;;;;;15.40;10.77;;;;;;;-145.18;100.00;46695.56;4993308;28;20069;-76
2022/04/13 02:46:35;;;;;;;23.23;11.93;;;;;;;-145.18;100.00;46689.69;4993864;28;20129;-76
2022/04/13 02:49:01;;;;;;;20.20;12.00;;;;;;;-145.18;100.00;46685.78;4993073;28;20092;-76
2022/04/13 02:51:26;;;;;;;18.57;12.10;;;;;;;-145.18;100.00;46693.59;4993565;28;20038;-76
2022/04/13 02:53:52;;;;;;;22.37;12.10;;;;;;;-145.18;100.00;46693.59;4993396;28;20479;-76
2022/04/13 02:56:17;;;;;;;22.73;12.40;;;;;;;-145.18;100.00;46685.78;4993464;28;20042;-75
2022/04/13 02:58:43;;;;;;;21.40;11.03;;;;;;;-145.18;100.00;46695.56;4993170;28;20097;-76
2022/04/13 03:01:08;;;;;;;23.63;12.03;;;;;;;-145.18;100.00;46699.47;4993366;28;20410;-75
2022/04/13 03:03:33;;;;;;;22.60;12.80;;;;;;;-145.18;100.00;46691.66;4993156;28;20058;-76
2022/04/13 03:05:59;;;;;;;19.63;12.13;;;;;;;-145.18;100.00;46691.66;4976188;28;20069;-76
2022/04/13 03:08:24;;;;;;;21.00;11.30;;;;;;;-145.18;100.00;46693.59;4993248;28;20044;-76
2022/04/13 03:10:50;;;;;;;20.43;13.40;;;;;;;-145.18;100.00;46687.75;4976026;28;20113;-76
2022/04/13 03:13:15;;;;;;;30.33;13.83;;;;;;;-145.18;100.00;46677.97;4992975;28;20124;-76
2022/04/13 03:15:40;;;;;;;25.63;12.40;;;;;;;-145.18;100.00;46681.88;4993554;28;20062;-76
2022/04/13 03:18:06;;;;;;;25.37;13.70;;;;;;;-145.18;100.00;46679.94;4992812;28;20522;-75
2022/04/13 03:20:33;;;;;;;25.07;12.57;;;;;;;-145.18;100.00;46676.03;4993409;28;20043;-76
2022/04/13 03:22:59;;;;;;;24.33;13.87;;;;;;;-145.18;100.00;46681.88;4992716;28;20038;-75
2022/04/13 03:25:24;;;;;;;21.37;12.87;;;;;;;-145.18;100.00;46679.94;4993306;28;20342;-76
2022/04/13 03:27:49;;;;;;;22.97;13.83;;;;;;;-145.18;100.00;46681.88;4992883;28;20042;-76
2022/04/13 03:30:16;;;;;;;29.23;13.50;;;;;;;-145.18;100.00;46679.94;4992938;28;20038;-75
2022/04/13 03:32:42;;;;;;;24.53;14.00;;;;;;;-145.18;100.00;46677.97;4992950;28;20113;-75
2022/04/13 03:35:12;;;;;;;25.80;14.30;;;;;;;-145.18;100.00;46672.13;4992939;28;20363;-75
2022/04/13 03:37:39;;;;;;;23.23;13.63;;;;;;;-145.18;100.00;46664.31;4992658;28;20042;-75
2022/04/13 03:40:09;;;;;;;22.63;13.73;;;;;;;-145.18;100.00;46666.25;4992870;28;20280;-76
2022/04/13 03:42:36;;;;;;;21.47;12.77;;;;;;;-145.18;100.00;46664.31;4992601;28;20300;-75
2022/04/13 03:45:12;;;;;;;23.20;13.17;;;;;;;-145.18;100.00;46672.13;4992298;28;20702;-75
2022/04/13 03:47:39;;;;;;;22.20;13.63;;;;;;;-145.18;100.00;46672.13;4992385;28;20637;-75
2022/04/13 03:50:06;;;;;;;24.67;13.17;;;;;;;-145.18;100.00;46677.97;4992607;28;20823;-75
2022/04/13 03:52:33;;;;;;;22.00;12.70;;;;;;;-145.18;100.00;46674.06;4991934;28;20275;-75
2022/04/13 03:54:59;;;;;;;22.63;13.47;;;;;;;-145.18;100.00;46676.03;4991587;28;21823;-75
2022/04/13 03:57:24;;;;;;;25.47;14.33;;;;;;;-145.18;100.00;46672.13;4990638;28;20296;-75
2022/04/13 03:59:50;;;;;;;25.70;13.87;;;;;;;-145.18;100.00;46674.06;4991766;28;20038;-75
2022/04/13 04:02:16;;;;;;;23.27;14.33;;;;;;;-145.18;100.00;46676.03;4990765;28;20542;-75
2022/04/13 04:04:41;;;;;;;21.73;13.23;;;;;;;-145.18;100.00;46676.03;4990896;28;20146;-75
2022/04/13 04:07:07;;;;;;;23.27;14.30;;;;;;;-145.18;100.00;46672.13;4991013;28;20030;-75
2022/04/13 04:09:32;;;;;;;22.50;13.40;;;;;;;-145.18;100.00;46674.06;4990967;28;20044;-76
2022/04/13 04:11:58;;;;;;;26.37;13.37;;;;;;;-145.18;100.00;46676.03;4974656;28;20116;-75
2022/04/13 04:14:23;;;;;;;28.63;14.83;;;;;;;-145.18;100.00;46668.22;4991164;28;20066;-76
2022/04/13 04:16:49;;;;;;;22.30;14.17;;;;;;;-145.18;100.00;46674.06;4974487;28;20150;-76
2022/04/13 04:19:14;;;;;;;25.70;12.50;;;;;;;-145.18;100.00;46674.06;4990913;28;20026;-76
2022/04/13 04:21:39;;;;;;;22.97;13.30;;;;;;;-145.18;100.00;46668.22;4991735;28;20034;-76
2022/04/13 04:24:05;;;;;;;24.73;14.20;;;;;;;-145.18;100.00;46674.06;4991310;28;20038;-76
2022/04/13 04:26:31;;;;;;;27.10;14.17;;;;;;;-145.18;100.00;46670.16;4992245;28;20034;-75
2022/04/13 04:28:56;;;;;;;24.27;14.13;;;;;;;-145.18;100.00;46668.22;4991449;28;20493;-76
2022/04/13 04:31:49;;;;;;;23.47;13.50;;;;;;;-145.18;100.00;46660.41;4991455;28;20050;-76
2022/04/13 04:34:07;;;;;;;25.52;15.20;;;;;;;-145.18;100.00;46666.25;4991296;28;20027;-76
2022/04/13 04:36:32;;;;;;;32.90;15.83;;;;;;;-145.18;100.00;46658.44;4991829;28;20479;-76
2022/04/13 04:38:58;;;;;;;22.77;15.53;;;;;;;-145.18;100.00;46666.25;4991855;28;20089;-75
2022/04/13 04:41:23;;;;;;;25.23;15.17;;;;;;;-145.18;100.00;46666.25;4991348;28;20121;-75
2022/04/13 04:43:48;;;;;;;23.73;15.33;;;;;;;-145.18;100.00;46662.34;4991483;28;20038;-75
2022/04/13 04:46:14;;;;;;;23.93;15.57;;;;;;;-145.18;100.00;46654.53;4991193;28;20034;-76
2022/04/13 04:48:42;;;;;;;31.77;15.50;;;;;;;-145.18;100.00;46658.44;4991295;28;20049;-76
2022/04/13 04:51:08;;;;;;;27.20;15.00;;;;;;;-145.18;100.00;46658.44;4991083;28;20118;-76
2022/04/13 04:53:33;;;;;;;31.17;15.50;;;;;;;-145.18;100.00;46660.41;4973057;28;20831;-76
2022/04/13 04:55:59;;;;;;;28.40;15.50;;;;;;;-145.18;100.00;46656.50;4971953;28;20265;-75
2022/04/13 04:58:25;;;;;;;25.30;16.63;;;;;;;-145.18;100.00;46648.69;4971389;28;20118;-75
2022/04/13 05:00:50;;;;;;;32.40;15.00;;;;;;;-145.18;100.00;46652.59;4985952;28;20038;-77
2022/04/13 05:03:16;;;;;;;27.33;15.33;;;;;;;-145.18;100.00;46658.44;4990349;28;20807;-75
2022/04/13 05:05:41;;;;;;;35.67;14.97;;;;;;;-145.18;100.00;46658.44;4991434;28;20046;-76
2022/04/13 05:08:07;;;;;;;29.50;16.07;;;;;;;-145.18;100.00;46652.59;4990822;28;20034;-75
2022/04/13 05:10:33;;;;;;;25.60;16.30;;;;;;;-145.18;100.00;46650.63;4991215;28;20035;-76
2022/04/13 05:12:58;;;;;;;30.17;15.80;;;;;;;-145.18;100.00;46650.63;4989957;28;20279;-75
2022/04/13 05:15:24;;;;;;;26.73;16.93;;;;;;;-145.18;100.00;46650.63;4989670;28;20034;-75
2022/04/13 05:17:49;;;;;;;26.80;16.43;;;;;;;-145.18;100.00;46652.59;4989124;28;20030;-75
2022/04/13 05:20:15;;;;;;;29.63;16.10;;;;;;;-145.18;100.00;46650.63;4989837;28;20085;-75
2022/04/13 05:22:40;;;;;;;30.37;16.53;;;;;;;-145.18;100.00;46646.72;4990689;28;20825;-76
2022/04/13 05:25:08;;;;;;;30.07;17.23;;;;;;;-145.18;100.00;46650.63;4990632;28;20038;-76
2022/04/13 05:27:34;;;;;;;28.57;17.83;;;;;;;-145.18;100.00;46644.78;4989956;28;20034;-76
2022/04/13 05:30:00;;;;;;;30.67;18.67;;;;;;;-145.18;100.00;46648.69;5006307;28;20275;-76
2022/04/13 05:32:25;;;;;;;27.23;16.30;;;;;;;-145.18;100.00;46654.53;4990667;28;20133;-75
2022/04/13 05:35:00;;;;;;;31.17;16.97;;;;;;;-145.18;100.00;46652.59;4989207;28;20069;-76
2022/04/13 05:37:26;;;;;;;31.00;17.47;;;;;;;-145.18;100.00;46646.72;4971131;28;20070;-75
2022/04/13 05:39:51;;;;;;;30.27;15.93;;;;;;;-145.18;100.00;46650.63;4971723;28;20373;-76
2022/04/13 05:42:23;;;;;;;29.13;15.73;;;;;;;-145.18;100.00;46646.72;4971086;28;20458;-75
2022/04/13 05:44:49;;;;;;;23.27;14.73;;;;;;;-145.18;100.00;46652.59;4971262;28;20026;-76
2022/04/13 05:47:15;;;;;;;22.20;14.07;;;;;;;-145.18;100.00;46652.59;4971259;28;20680;-75
2022/04/13 05:49:40;;;;;;;30.37;14.77;;;;;;;-145.18;100.00;46656.50;4971352;28;20085;-75
2022/04/13 05:52:06;;;;;;;28.07;15.97;;;;;;;-145.18;100.00;46654.53;4971213;28;20042;-76
2022/04/13 05:54:31;;;;;;;24.20;16.13;;;;;;;-145.18;100.00;46652.59;4971187;28;20039;-76
2022/04/13 05:56:57;;;;;;;23.30;13.87;;;;;;;-145.18;100.00;46652.59;4976429;28;20058;-76
2022/04/13 05:59:22;;;;;;;23.93;15.53;;;;;;;-145.18;100.00;46656.50;4990352;28;20387;-76
2022/04/13 06:01:48;;;;;;;22.93;15.67;;;;;;;-145.18;100.00;46648.69;4990825;28;20107;-76
2022/04/13 06:04:13;;;;;;;29.43;17.03;;;;;;;-145.18;100.00;46652.59;4989828;28;20059;-76
2022/04/13 06:06:38;;;;;;;25.70;16.43;;;;;;;-145.18;100.00;46648.69;4990761;28;20042;-76
2022/04/13 06:09:04;;;;;;;25.53;17.30;;;;;;;-145.18;100.00;46652.59;4990317;28;20093;-76
2022/04/13 06:11:29;;;;;;;29.93;20.33;;;;;;;-145.18;100.00;46648.69;4990803;28;20039;-76
2022/04/13 06:13:54;;;;;;;30.60;19.63;;;;;;;-145.18;100.00;46648.69;4990486;28;20034;-76
2022/04/13 06:16:20;;;;;;;32.37;20.77;;;;;;;-145.18;100.00;46650.63;4990407;28;20034;-76
2022/04/13 06:18:45;;;;;;;31.63;20.93;;;;;;;-145.18;100.00;46646.72;4989650;28;20065;-75
2022/04/13 06:21:11;;;;;;;30.43;21.20;;;;;;;-145.18;100.00;46656.50;4988834;28;20031;-76
2022/04/13 06:23:36;;;;;;;32.60;20.63;;;;;;;-145.18;100.00;46654.53;4990189;28;20046;-76
2022/04/13 06:26:01;;;;;;;30.60;20.67;;;;;;;-145.18;100.00;46654.53;4990585;28;20069;-76
2022/04/13 06:28:27;;;;;;;37.07;20.90;;;;;;;-145.18;100.00;46656.50;4992746;28;20125;-76
2022/04/13 06:30:52;;;;;;;37.10;20.27;;;;;;;-145.18;100.00;46656.50;4993862;28;20042;-76
2022/04/13 06:33:18;;;;;;;36.13;21.80;;;;;;;-145.18;100.00;46656.50;4989813;28;20073;-76
2022/04/13 06:35:44;;;;;;;37.60;21.00;;;;;;;-145.18;100.00;46660.41;4993817;28;20034;-76
2022/04/13 06:38:09;;;;;;;33.73;21.30;;;;;;;-145.18;100.00;46662.34;4976014;28;20045;-76
2022/04/13 06:40:34;;;;;;;31.97;20.47;;;;;;;-145.18;100.00;46660.41;4993756;28;20050;-76
2022/04/13 06:43:00;;;;;;;31.80;21.67;;;;;;;-145.18;100.00;46658.44;4993565;28;20042;-76
2022/04/13 06:45:25;;;;;;;35.57;21.70;;;;;;;-145.18;100.00;46656.50;4976358;28;20038;-77
2022/04/13 06:47:50;;;;;;;37.10;21.33;;;;;;;-145.18;100.00;46656.50;4993430;28;20391;-76
2022/04/13 06:50:16;;;;;;;34.13;21.00;;;;;;;-145.18;100.00;46658.44;4993402;28;20030;-76
2022/04/13 06:52:42;;;;;;;35.80;20.13;;;;;;;-145.18;100.00;46654.53;4992453;28;20062;-76
2022/04/13 06:55:11;;;;;;;35.43;19.80;;;;;;;-145.18;100.00;46658.44;4991147;28;20407;-76
2022/04/13 06:57:38;;;;;;;40.03;18.30;;;;;;;-145.18;100.00;46652.59;4993048;28;20483;-76
2022/04/13 07:00:09;;;;;;;26.90;16.37;;;;;;;-145.18;100.00;46654.53;4993220;28;20034;-76
2022/04/13 07:02:35;;;;;;;23.90;16.37;;;;;;;-145.18;100.00;46652.59;4993238;28;20062;-76
2022/04/13 07:05:01;;;;;;;25.87;17.10;;;;;;;-145.18;100.00;46652.59;4959867;28;20037;-76
2022/04/13 07:07:27;;;;;;;22.43;16.07;;;;;;;-145.18;100.00;46648.69;4993358;28;20043;-76
2022/04/13 07:09:52;;;;;;;28.97;15.80;;;;;;;-145.18;100.00;46652.59;4992654;28;20046;-76
2022/04/13 07:12:18;;;;;;;24.20;13.73;;;;;;;-145.18;100.00;46656.50;4974840;28;20113;-76
2022/04/13 07:14:43;;;;;;;29.20;14.57;;;;;;;-145.18;100.00;46656.50;4993030;28;20073;-76
2022/04/13 07:17:09;;;;;;;23.67;13.90;;;;;;;-145.18;100.00;46664.31;4993095;28;20038;-76
2022/04/13 07:19:34;;;;;;;22.80;13.57;;;;;;;-145.18;100.00;46662.34;4993012;28;20041;-76
2022/04/13 07:22:00;;;;;;;24.60;13.93;;;;;;;-145.18;100.00;46672.13;4993412;28;20038;-76
2022/04/13 07:24:27;;;;;;;21.47;12.63;;;;;;;-145.18;100.00;46660.41;4975188;28;20117;-76
2022/04/13 07:26:53;;;;;;;16.67;11.33;;;;;;;-145.18;100.00;46650.63;4993003;28;20467;-76
2022/04/13 07:29:18;;;;;;;17.97;11.60;;;;;;;-145.18;100.00;46656.50;4992445;28;20045;-76
2022/04/13 07:31:43;;;;;;;15.83;10.77;;;;;;;-145.18;100.00;46656.50;4993090;28;20046;-76
2022/04/13 07:34:09;;;;;;;22.30;12.20;;;;;;;-145.18;100.00;46662.34;4992456;28;20102;-76
2022/04/13 07:36:34;;;;;;;17.70;9.57;;;;;;;-145.18;100.00;46652.59;4992914;28;20045;-76
2022/04/13 07:39:01;;;;;;;16.60;8.50;;;;;;;-145.18;100.00;46627.19;4992632;28;20034;-76
2022/04/13 07:41:26;;;;;;;20.43;8.60;;;;;;;-145.18;100.00;46621.31;4992913;28;20410;-76
2022/04/13 07:43:52;;;;;;;16.43;8.27;;;;;;;-145.18;100.00;46592.03;4992479;28;20038;-76
2022/04/13 07:46:17;;;;;;;11.43;7.33;;;;;;;-145.18;100.00;46556.88;4992217;28;20410;-76
2022/04/13 07:48:43;;;;;;;11.47;5.77;;;;;;;-145.18;100.00;46539.28;4992421;28;20034;-76
2022/04/13 07:51:08;;;;;;;12.53;7.00;;;;;;;-145.18;100.00;46560.78;4992725;28;20491;-76
2022/04/13 07:53:33;;;;;;;19.07;8.10;;;;;;;-145.18;100.00;46586.16;4992510;28;20073;-76
2022/04/13 07:55:59;;;;;;;18.83;7.97;;;;;;;-145.18;100.00;46547.09;4975313;28;20379;-77
2022/04/13 07:58:24;;;;;;;15.53;8.17;;;;;;;-145.18;100.00;46551.00;4991960;28;20068;-76
2022/04/13 08:00:49;;;;;;;14.67;8.23;;;;;;;-145.18;100.00;46566.63;4991860;28;20041;-76
2022/04/13 08:03:15;;;;;;;16.60;8.27;;;;;;;-145.18;100.00;46554.91;4991600;28;20093;-76
2022/04/13 08:05:40;;;;;;;17.70;7.07;;;;;;;-145.18;100.00;46539.28;4992784;28;20066;-76
2022/04/13 08:08:06;;;;;;;15.37;7.40;;;;;;;-145.18;100.00;46551.00;4991833;28;20594;-77
2022/04/13 08:10:31;;;;;;;16.50;7.70;;;;;;;-145.18;100.00;46551.00;4992385;28;20030;-76
2022/04/13 08:12:57;;;;;;;19.00;9.13;;;;;;;-145.18;100.00;46564.69;4991858;28;20038;-76
2022/04/13 08:15:23;;;;;;;18.13;9.37;;;;;;;-145.18;100.00;46558.81;4992027;28;20090;-76
2022/04/13 08:17:49;;;;;;;17.97;8.97;;;;;;;-145.18;100.00;46539.28;4992150;28;20030;-76
2022/04/13 08:20:14;;;;;;;14.50;8.03;;;;;;;-145.18;100.00;46533.44;4991503;28;20141;-76
2022/04/13 08:22:41;;;;;;;16.43;8.43;;;;;;;-145.18;100.00;46543.19;4991790;28;20042;-76
2022/04/13 08:25:07;;;;;;;17.93;9.03;;;;;;;-145.18;100.00;46537.34;4990100;28;20098;-77
2022/04/13 08:27:33;;;;;;;14.00;7.50;;;;;;;-145.18;100.00;46537.34;4991929;28;20033;-76
2022/04/13 08:29:58;;;;;;;14.27;8.07;;;;;;;-145.18;100.00;46539.28;4990932;28;20500;-77
2022/04/13 08:32:24;;;;;;;12.73;7.50;;;;;;;-145.18;100.00;46539.28;4991774;28;20046;-76
2022/04/13 08:34:53;;;;;;;14.17;7.27;;;;;;;-145.18;100.00;46545.16;4991368;28;20510;-77
2022/04/13 08:37:20;;;;;;;15.20;7.60;;;;;;;-145.18;100.00;46539.28;4974417;28;20084;-76
2022/04/13 08:39:45;;;;;;;15.40;6.43;;;;;;;-145.18;100.00;46543.19;4991627;28;20105;-76
2022/04/13 08:42:13;;;;;;;11.23;6.30;;;;;;;-145.18;100.00;46539.28;4991447;28;20201;-76
2022/04/13 08:44:51;;;;;;;13.37;6.13;;;;;;;-145.18;100.00;46547.09;4991435;28;20068;-77
2022/04/13 08:47:21;;;;;;;12.53;7.00;;;;;;;-145.18;100.00;46551.00;4991091;28;20026;-77
2022/04/13 08:49:51;;;;;;;12.77;6.70;;;;;;;-145.18;100.00;46547.09;4990857;28;20060;-77
2022/04/13 08:52:28;;;;;;;12.63;6.30;;;;;;;-145.18;100.00;46543.19;4991585;28;20037;-77
2022/04/13 08:55:09;;;;;;;17.87;7.10;;;;;;;-145.18;100.00;46549.06;4991057;28;20483;-77
2022/04/13 08:57:41;;;;;;;12.30;7.17;;;;;;;-145.18;100.00;46558.81;4990737;28;20036;-77
2022/04/13 09:00:27;;;;;;;21.77;7.17;;;;;;;-145.18;100.00;46535.38;4990753;28;20032;-77
2022/04/13 09:03:14;;;;;;;12.93;6.37;;;;;;;-145.18;100.00;46547.09;4991139;28;20065;-77
2022/04/13 09:05:42;;;;;;;20.67;6.70;;;;;;;-145.18;100.00;46543.19;4991475;28;20525;-77
2022/04/13 09:08:21;;;;;;;14.97;7.00;;;;;;;-145.18;100.00;46541.25;4990953;28;20040;-77
2022/04/13 09:10:49;;;;;;;17.70;6.90;;;;;;;-145.18;100.00;46547.09;4991448;28;20034;-77
2022/04/13 09:13:15;;;;;;;13.73;6.33;;;;;;;-145.18;100.00;46558.81;4990745;28;20049;-77
2022/04/13 09:15:43;;;;;;;19.00;7.50;;;;;;;-145.18;100.00;46558.81;4990601;28;20045;-77
2022/04/13 09:18:09;;;;;;;13.07;6.87;;;;;;;-145.18;100.00;46545.16;4973495;28;20038;-77
2022/04/13 09:20:36;;;;;;;16.43;6.87;;;;;;;-145.18;100.00;46552.97;4990920;28;20438;-76
2022/04/13 09:23:02;;;;;;;16.13;6.67;;;;;;;-145.18;100.00;46551.00;4991125;28;20030;-76
2022/04/13 09:25:29;;;;;;;18.80;7.13;;;;;;;-145.18;100.00;46562.72;4990354;28;20550;-77
2022/04/13 09:27:57;;;;;;;13.13;6.17;;;;;;;-145.18;100.00;46552.97;4991159;28;20032;-77
2022/04/13 09:30:23;;;;;;;13.43;6.30;;;;;;;-145.18;100.00;46558.81;4990256;28;20058;-77
2022/04/13 09:32:50;;;;;;;13.77;5.90;;;;;;;-145.18;100.00;46554.91;4991228;28;20062;-76
2022/04/13 09:35:16;;;;;;;15.63;7.20;;;;;;;-145.18;100.00;46543.19;4989787;28;20037;-76
2022/04/13 09:37:42;;;;;;;12.93;7.00;;;;;;;-145.18;100.00;46545.16;4991189;28;20026;-77
2022/04/13 09:40:09;;;;;;;11.47;6.73;;;;;;;-145.18;100.00;46554.91;4990116;28;20022;-77
2022/04/13 09:42:36;;;;;;;14.17;6.60;;;;;;;-145.18;100.00;46551.00;4973756;28;20034;-77
2022/04/13 09:45:02;;;;;;;11.17;6.60;;;;;;;-145.18;100.00;46554.91;4989296;28;20440;-77
2022/04/13 09:47:33;;;;;;;14.33;7.47;;;;;;;-145.18;100.00;46554.91;4990400;28;20030;-77
2022/04/13 09:49:59;;;;;;;10.97;6.83;;;;;;;-145.18;100.00;46543.19;4990563;28;20049;-77
2022/04/13 09:52:41;;;;;;;13.20;7.27;;;;;;;-145.18;100.00;46539.28;4990976;28;20042;-77
2022/04/13 09:55:08;;;;;;;17.23;7.70;;;;;;;-145.18;100.00;46552.97;4989566;28;20073;-77
2022/04/13 09:57:34;;;;;;;16.93;7.10;;;;;;;-145.18;100.00;46551.00;4990926;28;20427;-77
2022/04/13 10:00:02;;;;;;;15.63;7.00;;;;;;;-145.18;100.00;46551.00;4990524;28;20030;-77
2022/04/13 10:02:38;;;;;;;13.53;6.50;;;;;;;-145.18;100.00;46556.88;4989241;28;20030;-77
2022/04/13 10:05:16;;;;;;;12.63;6.43;;;;;;;-145.18;100.00;46549.06;4994378;28;20058;-77
2022/04/13 10:07:41;;;;;;;15.80;6.90;;;;;;;-145.18;100.00;46552.97;4994639;28;20383;-77
2022/04/13 10:10:23;;;;;;;22.27;7.57;;;;;;;-145.18;100.00;46556.88;4993933;28;20042;-77
2022/04/13 10:12:49;;;;;;;12.53;7.10;;;;;;;-145.18;100.00;46558.81;4994662;28;20034;-77
2022/04/13 10:15:15;;;;;;;12.03;6.40;;;;;;;-145.18;100.00;46564.69;4993856;28;20554;-77
2022/04/13 10:17:41;;;;;;;11.80;6.27;;;;;;;-145.18;100.00;46552.97;4976855;28;20057;-77
2022/04/13 10:20:07;;;;;;;11.80;5.73;;;;;;;-145.18;100.00;46554.91;4993787;28;20042;-77
2022/04/13 10:22:32;;;;;;;14.97;7.50;;;;;;;-145.18;100.00;46560.78;4994153;28;20411;-77
2022/04/13 10:25:20;;;;;;;13.83;7.40;;;;;;;-145.18;100.00;46551.00;4993640;28;20034;-77
2022/04/13 10:27:57;;;;;;;15.20;7.03;;;;;;;-145.18;100.00;46552.97;4994343;28;20033;-77
2022/04/13 10:30:29;;;;;;;15.90;7.53;;;;;;;-145.18;100.00;46551.00;4993486;28;20045;-76
2022/04/13 10:32:59;;;;;;;10.97;5.57;;;;;;;-145.18;100.00;46539.28;4994133;28;20487;-77
2022/04/13 10:35:26;;;;;;;15.90;6.73;;;;;;;-145.18;100.00;46545.16;4993447;28;20057;-77
2022/04/13 10:37:52;;;;;;;11.97;5.60;;;;;;;-145.18;100.00;46549.06;4992957;28;20038;-77
2022/04/13 10:40:19;;;;;;;14.10;6.63;;;;;;;-145.18;100.00;46558.81;4993315;28;20187;-77
2022/04/13 10:42:46;;;;;;;12.73;6.77;;;;;;;-145.18;100.00;46564.69;4993038;28;20044;-77
2022/04/13 10:45:13;;;;;;;14.50;5.40;;;;;;;-145.18;100.00;46551.00;4993205;28;20065;-77
2022/04/13 10:47:56;;;;;;;12.13;5.83;;;;;;;-145.18;100.00;46552.97;4980473;28;20027;-77
2022/04/13 10:50:47;;;;;;;12.13;6.07;;;;;;;-145.18;100.00;46558.81;4972294;28;20027;-77
2022/04/13 10:53:28;;;;;;;15.13;7.63;;;;;;;-145.18;100.00;46566.63;4977113;28;20080;-76
2022/04/13 10:55:59;;;;;;;12.03;6.83;;;;;;;-145.18;100.00;46552.97;4992998;28;20454;-77
2022/04/13 10:58:48;;;;;;;13.63;5.70;;;;;;;-145.18;100.00;46558.81;4975311;28;20034;-77